sensor_id;sensor_type;location;lat;lon;timestamp;pressure;altitude;pressure_sealevel;temperature;humidity
61039;BME280;46919;45.816;3.104;2023-04-16T00:01:34;98296.09;;;7.88;89.55
61039;BME280;46919;45.816;3.104;2023-04-16T00:03:59;98287.25;;;7.94;88.98
61039;BME280;46919;45.816;3.104;2023-04-16T00:06:24;98290.75;;;7.94;88.87
61039;BME280;46919;45.816;3.104;2023-04-16T00:08:50;98288.13;;;8.01;88.55
61039;BME280;46919;45.816;3.104;2023-04-16T00:11:16;98293.75;;;8.06;87.96
61039;BME280;46919;45.816;3.104;2023-04-16T00:13:41;98301.81;;;8.06;87.86
61039;BME280;46919;45.816;3.104;2023-04-16T00:16:07;98295.41;;;8.07;87.94
61039;BME280;46919;45.816;3.104;2023-04-16T00:18:32;98296.03;;;8.09;87.95
61039;BME280;46919;45.816;3.104;2023-04-16T00:20:58;98294.38;;;8.08;87.93
61039;BME280;46919;45.816;3.104;2023-04-16T00:23:23;98299.94;;;8.07;88.15
61039;BME280;46919;45.816;3.104;2023-04-16T00:25:49;98296.22;;;8.08;88.28
61039;BME280;46919;45.816;3.104;2023-04-16T00:28:15;98292.06;;;8.05;87.98
61039;BME280;46919;45.816;3.104;2023-04-16T00:30:40;98293.75;;;8.06;87.97
61039;BME280;46919;45.816;3.104;2023-04-16T00:33:06;98293.34;;;8.09;87.53
61039;BME280;46919;45.816;3.104;2023-04-16T00:35:31;98297.88;;;8.09;87.57
61039;BME280;46919;45.816;3.104;2023-04-16T00:37:56;98296.81;;;8.03;88.04
61039;BME280;46919;45.816;3.104;2023-04-16T00:40:22;98290.81;;;8.01;88.06
61039;BME280;46919;45.816;3.104;2023-04-16T00:42:47;98294.53;;;8.00;88.57
61039;BME280;46919;45.816;3.104;2023-04-16T00:45:13;98298.44;;;7.97;88.62
61039;BME280;46919;45.816;3.104;2023-04-16T00:47:38;98288.06;;;7.94;88.95
61039;BME280;46919;45.816;3.104;2023-04-16T00:50:04;98294.28;;;7.95;89.02
61039;BME280;46919;45.816;3.104;2023-04-16T00:52:33;98297.63;;;7.97;89.11
61039;BME280;46919;45.816;3.104;2023-04-16T00:54:59;98293.25;;;7.96;88.94
61039;BME280;46919;45.816;3.104;2023-04-16T00:57:25;98287.03;;;7.95;89.41
61039;BME280;46919;45.816;3.104;2023-04-16T00:59:51;98294.91;;;7.97;89.34
61039;BME280;46919;45.816;3.104;2023-04-16T01:02:17;98295.94;;;7.96;89.61
61039;BME280;46919;45.816;3.104;2023-04-16T01:04:42;98302.16;;;7.90;90.19
61039;BME280;46919;45.816;3.104;2023-04-16T01:07:08;98297.34;;;7.85;90.43
61039;BME280;46919;45.816;3.104;2023-04-16T01:09:33;98289.47;;;7.84;90.57
61039;BME280;46919;45.816;3.104;2023-04-16T01:11:58;98300.16;;;7.77;90.96
61039;BME280;46919;45.816;3.104;2023-04-16T01:14:24;98288.34;;;7.71;91.13
61039;BME280;46919;45.816;3.104;2023-04-16T01:16:49;98292.06;;;7.70;91.60
61039;BME280;46919;45.816;3.104;2023-04-16T01:19:15;98302.38;;;7.67;91.52
61039;BME280;46919;45.816;3.104;2023-04-16T01:21:40;98307.19;;;7.71;91.33
61039;BME280;46919;45.816;3.104;2023-04-16T01:24:06;98302.19;;;7.68;91.86
61039;BME280;46919;45.816;3.104;2023-04-16T01:26:31;98306.69;;;7.61;91.93
61039;BME280;46919;45.816;3.104;2023-04-16T01:28:57;98302.78;;;7.64;91.96
61039;BME280;46919;45.816;3.104;2023-04-16T01:31:22;98294.31;;;7.67;91.77
61039;BME280;46919;45.816;3.104;2023-04-16T01:33:48;98298.69;;;7.68;91.98
61039;BME280;46919;45.816;3.104;2023-04-16T01:36:13;98298.06;;;7.72;91.50
61039;BME280;46919;45.816;3.104;2023-04-16T01:38:38;98304.72;;;7.76;91.34
61039;BME280;46919;45.816;3.104;2023-04-16T01:41:04;98304.72;;;7.76;91.34
61039;BME280;46919;45.816;3.104;2023-04-16T01:43:29;98304.72;;;7.76;91.67
61039;BME280;46919;45.816;3.104;2023-04-16T01:46:17;98308.91;;;7.79;91.36
61039;BME280;46919;45.816;3.104;2023-04-16T01:48:42;98306.41;;;7.77;91.93
61039;BME280;46919;45.816;3.104;2023-04-16T01:51:08;98306.41;;;7.77;91.69
61039;BME280;46919;45.816;3.104;2023-04-16T01:53:34;98303.06;;;7.75;91.88
61039;BME280;46919;45.816;3.104;2023-04-16T01:56:00;98313.81;;;7.75;92.43
61039;BME280;46919;45.816;3.104;2023-04-16T01:58:27;98315.50;;;7.76;92.38
61039;BME280;46919;45.816;3.104;2023-04-16T02:00:54;98322.53;;;7.77;92.32
61039;BME280;46919;45.816;3.104;2023-04-16T02:03:20;98324.38;;;7.77;92.45
61039;BME280;46919;45.816;3.104;2023-04-16T02:05:45;98327.06;;;7.77;92.40
61039;BME280;46919;45.816;3.104;2023-04-16T02:08:11;98331.00;;;7.74;92.78
61039;BME280;46919;45.816;3.104;2023-04-16T02:10:37;98327.06;;;7.77;92.52
61039;BME280;46919;45.816;3.104;2023-04-16T02:13:02;98331.63;;;7.76;92.70
61039;BME280;46919;45.816;3.104;2023-04-16T02:15:27;98328.94;;;7.76;92.89
61039;BME280;46919;45.816;3.104;2023-04-16T02:17:53;98330.63;;;7.77;92.63
61039;BME280;46919;45.816;3.104;2023-04-16T02:20:21;98332.47;;;7.77;92.59
61039;BME280;46919;45.816;3.104;2023-04-16T02:22:46;98337.78;;;7.70;93.03
61039;BME280;46919;45.816;3.104;2023-04-16T02:25:12;98333.25;;;7.71;93.10
61039;BME280;46919;45.816;3.104;2023-04-16T02:27:38;98336.59;;;7.73;93.61
61039;BME280;46919;45.816;3.104;2023-04-16T02:30:04;98336.16;;;7.69;92.86
61039;BME280;46919;45.816;3.104;2023-04-16T02:32:30;98339.84;;;7.68;92.84
61039;BME280;46919;45.816;3.104;2023-04-16T02:34:55;98336.97;;;7.70;93.02
61039;BME280;46919;45.816;3.104;2023-04-16T02:37:21;98329.53;;;7.72;93.09
61039;BME280;46919;45.816;3.104;2023-04-16T02:39:47;98334.09;;;7.71;92.77
61039;BME280;46919;45.816;3.104;2023-04-16T02:42:14;98329.09;;;7.68;92.84
61039;BME280;46919;45.816;3.104;2023-04-16T02:44:40;98329.47;;;7.65;93.09
61039;BME280;46919;45.816;3.104;2023-04-16T02:47:06;98331.16;;;7.66;93.24
61039;BME280;46919;45.816;3.104;2023-04-16T02:49:32;98334.88;;;7.65;93.08
61039;BME280;46919;45.816;3.104;2023-04-16T02:51:57;98330.31;;;7.66;92.82
61039;BME280;46919;45.816;3.104;2023-04-16T02:54:22;98331.16;;;7.66;92.68
61039;BME280;46919;45.816;3.104;2023-04-16T02:56:48;98330.50;;;7.64;92.92
61039;BME280;46919;45.816;3.104;2023-04-16T02:59:13;98334.03;;;7.65;92.80
61039;BME280;46919;45.816;3.104;2023-04-16T03:01:39;98327.00;;;7.64;92.86
61039;BME280;46919;45.816;3.104;2023-04-16T03:04:04;98325.50;;;7.61;92.97
61039;BME280;46919;45.816;3.104;2023-04-16T03:06:29;98329.44;;;7.58;93.36
61039;BME280;46919;45.816;3.104;2023-04-16T03:08:55;98329.41;;;7.52;93.40
61039;BME280;46919;45.816;3.104;2023-04-16T03:11:21;98333.72;;;7.53;93.37
61039;BME280;46919;45.816;3.104;2023-04-16T03:13:46;98333.91;;;7.51;93.59
61039;BME280;46919;45.816;3.104;2023-04-16T03:16:12;98330.59;;;7.49;93.21
61039;BME280;46919;45.816;3.104;2023-04-16T03:18:37;98330.97;;;7.46;93.78
61039;BME280;46919;45.816;3.104;2023-04-16T03:21:03;98328.88;;;7.41;93.42
61039;BME280;46919;45.816;3.104;2023-04-16T03:23:28;98323.50;;;7.41;93.57
61039;BME280;46919;45.816;3.104;2023-04-16T03:25:54;98316.00;;;7.37;93.60
61039;BME280;46919;45.816;3.104;2023-04-16T03:28:20;98327.59;;;7.37;93.62
61039;BME280;46919;45.816;3.104;2023-04-16T03:30:49;98328.44;;;7.38;93.34
61039;BME280;46919;45.816;3.104;2023-04-16T03:33:15;98332.53;;;7.34;93.70
61039;BME280;46919;45.816;3.104;2023-04-16T03:35:41;98325.50;;;7.33;93.49
61039;BME280;46919;45.816;3.104;2023-04-16T03:38:06;98335.41;;;7.32;93.33
61039;BME280;46919;45.816;3.104;2023-04-16T03:40:32;98334.97;;;7.29;93.46
61039;BME280;46919;45.816;3.104;2023-04-16T03:42:57;98334.53;;;7.25;93.88
61039;BME280;46919;45.816;3.104;2023-04-16T03:45:22;98341.94;;;7.23;94.11
61039;BME280;46919;45.816;3.104;2023-04-16T03:47:48;98335.94;;;7.21;94.43
61039;BME280;46919;45.816;3.104;2023-04-16T03:50:20;98338.38;;;7.16;94.40
61039;BME280;46919;45.816;3.104;2023-04-16T03:52:45;98338.38;;;7.16;94.04
61039;BME280;46919;45.816;3.104;2023-04-16T03:55:13;98339.38;;;7.15;94.49
61039;BME280;46919;45.816;3.104;2023-04-16T03:57:39;98335.69;;;7.16;94.10
61039;BME280;46919;45.816;3.104;2023-04-16T04:00:05;98343.94;;;7.14;94.50
61039;BME280;46919;45.816;3.104;2023-04-16T04:02:30;98340.63;;;7.12;94.13
61039;BME280;46919;45.816;3.104;2023-04-16T04:04:55;98330.81;;;7.04;94.75
61039;BME280;46919;45.816;3.104;2023-04-16T04:07:21;98333.03;;;7.01;94.62
61039;BME280;46919;45.816;3.104;2023-04-16T04:09:46;98328.63;;;6.93;94.95
61039;BME280;46919;45.816;3.104;2023-04-16T04:12:11;98329.78;;;6.84;95.52
61039;BME280;46919;45.816;3.104;2023-04-16T04:14:37;98334.78;;;6.72;95.92
61039;BME280;46919;45.816;3.104;2023-04-16T04:17:07;98324.72;;;6.59;96.51
61039;BME280;46919;45.816;3.104;2023-04-16T04:19:33;98328.72;;;6.48;96.52
61039;BME280;46919;45.816;3.104;2023-04-16T04:21:58;98332.34;;;6.41;96.91
61039;BME280;46919;45.816;3.104;2023-04-16T04:24:24;98331.00;;;6.30;97.36
61039;BME280;46919;45.816;3.104;2023-04-16T04:26:50;98338.09;;;6.23;97.81
61039;BME280;46919;45.816;3.104;2023-04-16T04:29:15;98336.72;;;6.12;97.75
61039;BME280;46919;45.816;3.104;2023-04-16T04:31:41;98335.13;;;6.03;98.28
61039;BME280;46919;45.816;3.104;2023-04-16T04:34:06;98335.75;;;5.90;98.84
61039;BME280;46919;45.816;3.104;2023-04-16T04:36:31;98331.88;;;5.77;99.09
61039;BME280;46919;45.816;3.104;2023-04-16T04:38:57;98328.50;;;5.60;99.25
61039;BME280;46919;45.816;3.104;2023-04-16T04:41:23;98333.34;;;5.42;99.35
61039;BME280;46919;45.816;3.104;2023-04-16T04:43:48;98338.50;;;5.29;100.00
61039;BME280;46919;45.816;3.104;2023-04-16T04:46:14;98332.53;;;5.18;100.00
61039;BME280;46919;45.816;3.104;2023-04-16T04:48:39;98337.31;;;5.08;100.00
61039;BME280;46919;45.816;3.104;2023-04-16T04:51:05;98341.25;;;4.97;100.00
61039;BME280;46919;45.816;3.104;2023-04-16T04:53:30;98345.16;;;4.86;100.00
61039;BME280;46919;45.816;3.104;2023-04-16T04:55:55;98344.22;;;4.79;100.00
61039;BME280;46919;45.816;3.104;2023-04-16T04:58:21;98351.75;;;4.76;100.00
61039;BME280;46919;45.816;3.104;2023-04-16T05:00:46;98358.66;;;4.70;100.00
61039;BME280;46919;45.816;3.104;2023-04-16T05:03:12;98359.69;;;4.61;100.00
61039;BME280;46919;45.816;3.104;2023-04-16T05:05:43;98369.94;;;4.57;100.00
61039;BME280;46919;45.816;3.104;2023-04-16T05:08:08;98356.59;;;4.49;100.00
61039;BME280;46919;45.816;3.104;2023-04-16T05:10:33;98362.13;;;4.47;100.00
61039;BME280;46919;45.816;3.104;2023-04-16T05:12:59;98364.78;;;4.47;100.00
61039;BME280;46919;45.816;3.104;2023-04-16T05:15:24;98361.94;;;4.41;100.00
61039;BME280;46919;45.816;3.104;2023-04-16T05:17:50;98375.03;;;4.35;100.00
61039;BME280;46919;45.816;3.104;2023-04-16T05:20:15;98372.38;;;4.27;100.00
61039;BME280;46919;45.816;3.104;2023-04-16T05:22:40;98369.22;;;4.24;100.00
61039;BME280;46919;45.816;3.104;2023-04-16T05:25:06;98373.25;;;4.20;100.00
61039;BME280;46919;45.816;3.104;2023-04-16T05:27:31;98377.94;;;4.17;100.00
61039;BME280;46919;45.816;3.104;2023-04-16T05:29:57;98381.59;;;4.16;100.00
61039;BME280;46919;45.816;3.104;2023-04-16T05:32:24;98378.41;;;4.21;100.00
61039;BME280;46919;45.816;3.104;2023-04-16T05:34:50;98377.59;;;4.21;100.00
61039;BME280;46919;45.816;3.104;2023-04-16T05:37:15;98373.56;;;4.25;100.00
61039;BME280;46919;45.816;3.104;2023-04-16T05:39:41;98374.88;;;4.29;100.00
61039;BME280;46919;45.816;3.104;2023-04-16T05:42:06;98380.91;;;4.31;100.00
61039;BME280;46919;45.816;3.104;2023-04-16T05:44:32;98382.53;;;4.40;100.00
61039;BME280;46919;45.816;3.104;2023-04-16T05:46:58;98385.03;;;4.42;100.00
61039;BME280;46919;45.816;3.104;2023-04-16T05:49:23;98379.56;;;4.35;100.00
61039;BME280;46919;45.816;3.104;2023-04-16T05:51:48;98379.56;;;4.35;100.00
61039;BME280;46919;45.816;3.104;2023-04-16T05:54:14;98365.63;;;4.48;100.00
61039;BME280;46919;45.816;3.104;2023-04-16T05:56:39;98369.13;;;4.48;100.00
61039;BME280;46919;45.816;3.104;2023-04-16T05:59:05;98370.31;;;4.46;100.00
61039;BME280;46919;45.816;3.104;2023-04-16T06:01:31;98371.75;;;4.57;100.00
61039;BME280;46919;45.816;3.104;2023-04-16T06:03:57;98379.09;;;4.63;100.00
61039;BME280;46919;45.816;3.104;2023-04-16T06:06:22;98379.84;;;4.80;100.00
61039;BME280;46919;45.816;3.104;2023-04-16T06:08:47;98374.91;;;4.92;100.00
61039;BME280;46919;45.816;3.104;2023-04-16T06:11:13;98372.97;;;5.08;99.90
61039;BME280;46919;45.816;3.104;2023-04-16T06:13:38;98366.56;;;5.18;99.56
61039;BME280;46919;45.816;3.104;2023-04-16T06:16:04;98367.38;;;5.18;100.00
61039;BME280;46919;45.816;3.104;2023-04-16T06:18:29;98367.56;;;5.17;99.95
61039;BME280;46919;45.816;3.104;2023-04-16T06:20:55;98370.19;;;5.25;100.00
61039;BME280;46919;45.816;3.104;2023-04-16T06:23:23;98379.00;;;5.34;99.80
61039;BME280;46919;45.816;3.104;2023-04-16T06:25:48;98378.94;;;5.42;99.71
61039;BME280;46919;45.816;3.104;2023-04-16T06:28:13;98379.16;;;5.55;99.55
61039;BME280;46919;45.816;3.104;2023-04-16T06:30:39;98384.09;;;5.67;99.30
61039;BME280;46919;45.816;3.104;2023-04-16T06:33:04;98381.34;;;5.75;99.10
61039;BME280;46919;45.816;3.104;2023-04-16T06:35:30;98391.81;;;5.85;98.82
61039;BME280;46919;45.816;3.104;2023-04-16T06:37:55;98386.91;;;5.88;98.66
61039;BME280;46919;45.816;3.104;2023-04-16T06:40:21;98378.81;;;5.96;98.51
61039;BME280;46919;45.816;3.104;2023-04-16T06:42:46;98376.41;;;6.02;98.17
61039;BME280;46919;45.816;3.104;2023-04-16T06:45:12;98380.19;;;6.07;97.92
61039;BME280;46919;45.816;3.104;2023-04-16T06:47:37;98381.88;;;6.08;97.86
61039;BME280;46919;45.816;3.104;2023-04-16T06:50:03;98391.06;;;6.14;97.78
61039;BME280;46919;45.816;3.104;2023-04-16T06:52:28;98388.28;;;6.22;97.39
61039;BME280;46919;45.816;3.104;2023-04-16T06:54:54;98382.63;;;6.32;96.86
61039;BME280;46919;45.816;3.104;2023-04-16T06:57:20;98395.88;;;6.33;96.77
61039;BME280;46919;45.816;3.104;2023-04-16T06:59:45;98394.31;;;6.39;96.58
61039;BME280;46919;45.816;3.104;2023-04-16T07:02:11;98389.38;;;6.43;96.24
61039;BME280;46919;45.816;3.104;2023-04-16T07:04:36;98383.09;;;6.50;95.55
61039;BME280;46919;45.816;3.104;2023-04-16T07:07:02;98387.53;;;6.58;95.06
61039;BME280;46919;45.816;3.104;2023-04-16T07:09:27;98392.63;;;6.68;94.78
61039;BME280;46919;45.816;3.104;2023-04-16T07:11:53;98400.13;;;6.73;94.51
61039;BME280;46919;45.816;3.104;2023-04-16T07:14:18;98394.25;;;6.84;93.89
61039;BME280;46919;45.816;3.104;2023-04-16T07:16:43;98389.22;;;6.96;92.99
61039;BME280;46919;45.816;3.104;2023-04-16T07:19:09;98390.94;;;7.03;92.42
61039;BME280;46919;45.816;3.104;2023-04-16T07:21:35;98403.44;;;7.11;92.06
61039;BME280;46919;45.816;3.104;2023-04-16T07:24:01;98398.56;;;7.21;91.96
61039;BME280;46919;45.816;3.104;2023-04-16T07:26:27;98406.59;;;7.36;91.03
61039;BME280;46919;45.816;3.104;2023-04-16T07:28:52;98410.06;;;7.52;90.00
61039;BME280;46919;45.816;3.104;2023-04-16T07:31:17;98408.13;;;7.67;89.66
61039;BME280;46919;45.816;3.104;2023-04-16T07:33:43;98409.22;;;7.73;87.27
61039;BME280;46919;45.816;3.104;2023-04-16T07:36:08;98406.41;;;7.81;86.50
61039;BME280;46919;45.816;3.104;2023-04-16T07:38:34;98416.63;;;7.92;85.46
61039;BME280;46919;45.816;3.104;2023-04-16T07:40:59;98410.47;;;7.98;84.12
61039;BME280;46919;45.816;3.104;2023-04-16T07:43:25;98409.78;;;7.90;82.03
61039;BME280;46919;45.816;3.104;2023-04-16T07:45:50;98410.66;;;7.97;81.20
61039;BME280;46919;45.816;3.104;2023-04-16T07:48:16;98400.78;;;8.04;80.81
61039;BME280;46919;45.816;3.104;2023-04-16T07:50:41;98418.19;;;8.08;80.51
61039;BME280;46919;45.816;3.104;2023-04-16T07:53:10;98403.13;;;8.14;80.22
61039;BME280;46919;45.816;3.104;2023-04-16T07:55:36;98409.78;;;8.18;79.92
61039;BME280;46919;45.816;3.104;2023-04-16T07:58:01;98409.88;;;8.31;79.16
61039;BME280;46919;45.816;3.104;2023-04-16T08:00:27;98405.06;;;8.27;76.59
61039;BME280;46919;45.816;3.104;2023-04-16T08:02:53;98404.09;;;8.34;76.86
61039;BME280;46919;45.816;3.104;2023-04-16T08:05:18;98402.09;;;8.43;76.47
61039;BME280;46919;45.816;3.104;2023-04-16T08:07:44;98396.78;;;8.57;75.99
61039;BME280;46919;45.816;3.104;2023-04-16T08:10:09;98394.31;;;8.62;75.17
61039;BME280;46919;45.816;3.104;2023-04-16T08:12:35;98395.03;;;8.77;74.79
61039;BME280;46919;45.816;3.104;2023-04-16T08:15:00;98393.56;;;8.81;73.23
61039;BME280;46919;45.816;3.104;2023-04-16T08:17:26;98409.56;;;8.89;71.82
61039;BME280;46919;45.816;3.104;2023-04-16T08:19:53;98400.50;;;9.04;71.06
61039;BME280;46919;45.816;3.104;2023-04-16T08:22:18;98396.38;;;9.15;69.98
61039;BME280;46919;45.816;3.104;2023-04-16T08:24:44;98392.28;;;9.25;69.37
61039;BME280;46919;45.816;3.104;2023-04-16T08:27:09;98398.72;;;9.31;66.76
61039;BME280;46919;45.816;3.104;2023-04-16T08:29:36;98390.44;;;9.46;66.74
61039;BME280;46919;45.816;3.104;2023-04-16T08:32:01;98390.84;;;9.43;66.19
61039;BME280;46919;45.816;3.104;2023-04-16T08:34:27;98391.72;;;9.57;65.37
61039;BME280;46919;45.816;3.104;2023-04-16T08:36:52;98397.75;;;9.72;63.29
61039;BME280;46919;45.816;3.104;2023-04-16T08:39:18;98400.03;;;9.82;62.74
61039;BME280;46919;45.816;3.104;2023-04-16T08:41:45;98398.34;;;9.81;61.99
61039;BME280;46919;45.816;3.104;2023-04-16T08:44:31;98390.66;;;9.85;59.20
61039;BME280;46919;45.816;3.104;2023-04-16T08:46:58;98400.44;;;9.92;60.40
61039;BME280;46919;45.816;3.104;2023-04-16T08:49:25;98397.50;;;10.01;60.20
61039;BME280;46919;45.816;3.104;2023-04-16T08:51:54;98402.09;;;10.00;60.35
61039;BME280;46919;45.816;3.104;2023-04-16T08:54:30;98409.34;;;10.13;58.65
61039;BME280;46919;45.816;3.104;2023-04-16T08:56:57;98403.72;;;10.21;56.53
61039;BME280;46919;45.816;3.104;2023-04-16T08:59:26;98407.28;;;10.28;56.59
61039;BME280;46919;45.816;3.104;2023-04-16T09:01:56;98413.53;;;10.42;56.19
61039;BME280;46919;45.816;3.104;2023-04-16T09:04:26;98407.00;;;10.63;55.74
61039;BME280;46919;45.816;3.104;2023-04-16T09:06:55;98416.91;;;10.83;56.23
61039;BME280;46919;45.816;3.104;2023-04-16T09:09:25;98409.41;;;10.92;57.20
61039;BME280;46919;45.816;3.104;2023-04-16T09:11:51;98411.44;;;11.03;57.14
61039;BME280;46919;45.816;3.104;2023-04-16T09:14:17;98409.94;;;11.14;57.04
61039;BME280;46919;45.816;3.104;2023-04-16T09:16:47;98396.13;;;11.29;56.86
61039;BME280;46919;45.816;3.104;2023-04-16T09:19:13;98402.22;;;11.17;56.51
61039;BME280;46919;45.816;3.104;2023-04-16T09:21:40;98408.63;;;11.30;56.42
61039;BME280;46919;45.816;3.104;2023-04-16T09:24:10;98401.75;;;11.27;56.44
61039;BME280;46919;45.816;3.104;2023-04-16T09:26:35;98407.09;;;11.40;55.86
61039;BME280;46919;45.816;3.104;2023-04-16T09:29:01;98406.31;;;11.65;55.12
61039;BME280;46919;45.816;3.104;2023-04-16T09:31:26;98413.13;;;11.74;54.41
61039;BME280;46919;45.816;3.104;2023-04-16T09:34:03;98407.69;;;11.74;54.51
61039;BME280;46919;45.816;3.104;2023-04-16T09:36:29;98415.28;;;11.91;53.68
61039;BME280;46919;45.816;3.104;2023-04-16T09:38:55;98406.22;;;11.78;51.66
61039;BME280;46919;45.816;3.104;2023-04-16T09:41:26;98407.19;;;11.84;50.43
61039;BME280;46919;45.816;3.104;2023-04-16T09:44:02;98413.63;;;11.90;50.83
61039;BME280;46919;45.816;3.104;2023-04-16T09:46:35;98408.66;;;11.87;50.72
61039;BME280;46919;45.816;3.104;2023-04-16T09:49:13;98404.97;;;12.06;50.13
61039;BME280;46919;45.816;3.104;2023-04-16T09:51:46;98399.34;;;12.08;47.29
61039;BME280;46919;45.816;3.104;2023-04-16T09:54:12;98400.78;;;12.10;46.43
61039;BME280;46919;45.816;3.104;2023-04-16T09:56:42;98409.22;;;12.21;47.88
61039;BME280;46919;45.816;3.104;2023-04-16T09:59:18;98414.84;;;12.19;47.07
61039;BME280;46919;45.816;3.104;2023-04-16T10:01:44;98415.19;;;12.29;47.28
61039;BME280;46919;45.816;3.104;2023-04-16T10:04:11;98409.47;;;12.38;46.84
61039;BME280;46919;45.816;3.104;2023-04-16T10:06:36;98402.53;;;12.23;46.68
61039;BME280;46919;45.816;3.104;2023-04-16T10:09:06;98401.25;;;12.26;46.79
61039;BME280;46919;45.816;3.104;2023-04-16T10:11:32;98398.28;;;12.53;46.05
61039;BME280;46919;45.816;3.104;2023-04-16T10:13:57;98400.47;;;12.44;45.89
61039;BME280;46919;45.816;3.104;2023-04-16T10:16:23;98400.38;;;12.50;45.80
61039;BME280;46919;45.816;3.104;2023-04-16T10:18:48;98397.16;;;12.79;45.83
61039;BME280;46919;45.816;3.104;2023-04-16T10:21:14;98394.44;;;12.97;45.91
61039;BME280;46919;45.816;3.104;2023-04-16T10:23:41;98394.16;;;13.17;44.99
61039;BME280;46919;45.816;3.104;2023-04-16T10:26:07;98377.84;;;13.05;42.61
61039;BME280;46919;45.816;3.104;2023-04-16T10:28:33;98390.53;;;13.23;42.69
61039;BME280;46919;45.816;3.104;2023-04-16T10:31:06;98379.44;;;13.25;41.61
61039;BME280;46919;45.816;3.104;2023-04-16T10:33:34;98385.56;;;13.39;41.35
61039;BME280;46919;45.816;3.104;2023-04-16T10:36:09;98387.38;;;13.27;40.49
61039;BME280;46919;45.816;3.104;2023-04-16T10:38:38;98384.22;;;13.11;40.62
61039;BME280;46919;45.816;3.104;2023-04-16T10:41:05;98392.16;;;13.43;41.87
61039;BME280;46919;45.816;3.104;2023-04-16T10:43:33;98383.97;;;13.62;40.47
61039;BME280;46919;45.816;3.104;2023-04-16T10:48:55;98377.91;;;13.48;40.59
61039;BME280;46919;45.816;3.104;2023-04-16T10:51:32;98386.44;;;13.63;40.90
61039;BME280;46919;45.816;3.104;2023-04-16T10:54:03;98385.88;;;13.61;40.14
61039;BME280;46919;45.816;3.104;2023-04-16T10:56:32;98382.81;;;13.81;40.34
61039;BME280;46919;45.816;3.104;2023-04-16T10:58:57;98368.66;;;13.79;37.25
61039;BME280;46919;45.816;3.104;2023-04-16T11:01:33;98372.75;;;13.70;37.30
61039;BME280;46919;45.816;3.104;2023-04-16T11:09:51;98370.53;;;13.90;36.73
61039;BME280;46919;45.816;3.104;2023-04-16T11:14:47;98366.06;;;14.31;35.67
61039;BME280;46919;45.816;3.104;2023-04-16T11:17:13;98365.00;;;14.56;35.92
61039;BME280;46919;45.816;3.104;2023-04-16T11:19:38;98353.97;;;14.51;35.08
61039;BME280;46919;45.816;3.104;2023-04-16T11:22:04;98351.75;;;14.60;35.67
61039;BME280;46919;45.816;3.104;2023-04-16T11:24:32;98353.53;;;14.66;34.87
61039;BME280;46919;45.816;3.104;2023-04-16T11:26:58;98345.97;;;14.56;34.20
61039;BME280;46919;45.816;3.104;2023-04-16T11:29:23;98347.84;;;14.44;32.69
61039;BME280;46919;45.816;3.104;2023-04-16T11:31:53;98345.13;;;14.44;33.57
61039;BME280;46919;45.816;3.104;2023-04-16T11:34:19;98337.97;;;14.90;34.05
61039;BME280;46919;45.816;3.104;2023-04-16T11:36:46;98325.56;;;14.82;33.75
61039;BME280;46919;45.816;3.104;2023-04-16T11:39:12;98328.38;;;14.88;34.29
61039;BME280;46919;45.816;3.104;2023-04-16T11:41:47;98324.75;;;15.11;33.11
61039;BME280;46919;45.816;3.104;2023-04-16T11:44:20;98313.75;;;14.77;31.41
61039;BME280;46919;45.816;3.104;2023-04-16T11:46:46;98310.25;;;14.64;32.81
61039;BME280;46919;45.816;3.104;2023-04-16T11:49:12;98313.78;;;15.06;33.05
61039;BME280;46919;45.816;3.104;2023-04-16T11:51:42;98312.69;;;15.35;32.81
61039;BME280;46919;45.816;3.104;2023-04-16T11:54:08;98315.53;;;15.29;33.75
61039;BME280;46919;45.816;3.104;2023-04-16T11:56:35;98310.31;;;15.56;33.03
61039;BME280;46919;45.816;3.104;2023-04-16T11:59:20;98307.47;;;15.51;32.63
61039;BME280;46919;45.816;3.104;2023-04-16T12:01:49;98309.97;;;15.69;32.05
61039;BME280;46919;45.816;3.104;2023-04-16T12:04:16;98310.78;;;15.70;32.35
61039;BME280;46919;45.816;3.104;2023-04-16T12:07:05;98297.44;;;15.85;29.90
61039;BME280;46919;45.816;3.104;2023-04-16T12:09:31;98314.59;;;16.03;31.96
61039;BME280;46919;45.816;3.104;2023-04-16T12:11:56;98321.53;;;16.10;31.73
61039;BME280;46919;45.816;3.104;2023-04-16T12:14:22;98310.75;;;16.21;31.63
61039;BME280;46919;45.816;3.104;2023-04-16T12:16:47;98310.25;;;16.24;31.79
61039;BME280;46919;45.816;3.104;2023-04-16T12:19:13;98305.28;;;16.38;32.24
61039;BME280;46919;45.816;3.104;2023-04-16T12:21:49;98310.66;;;16.33;31.79
61039;BME280;46919;45.816;3.104;2023-04-16T12:24:17;98311.69;;;16.09;31.64
61039;BME280;46919;45.816;3.104;2023-04-16T12:26:46;98317.94;;;16.27;32.24
61039;BME280;46919;45.816;3.104;2023-04-16T12:29:23;98311.53;;;16.38;30.62
61039;BME280;46919;45.816;3.104;2023-04-16T12:31:51;98316.38;;;16.31;31.27
61039;BME280;46919;45.816;3.104;2023-04-16T12:34:17;98315.81;;;16.29;30.90
61039;BME280;46919;45.816;3.104;2023-04-16T12:36:43;98312.06;;;16.35;31.23
61039;BME280;46919;45.816;3.104;2023-04-16T12:39:11;98312.88;;;16.36;30.73
61039;BME280;46919;45.816;3.104;2023-04-16T12:41:38;98308.41;;;16.69;31.17
61039;BME280;46919;45.816;3.104;2023-04-16T12:44:08;98299.13;;;16.92;31.58
61039;BME280;46919;45.816;3.104;2023-04-16T12:46:36;98300.38;;;16.62;32.17
61039;BME280;46919;45.816;3.104;2023-04-16T12:49:02;98306.44;;;16.64;32.68
61039;BME280;46919;45.816;3.104;2023-04-16T12:51:27;98305.47;;;16.75;33.07
61039;BME280;46919;45.816;3.104;2023-04-16T12:53:53;98299.91;;;16.87;32.41
61039;BME280;46919;45.816;3.104;2023-04-16T12:56:19;98308.84;;;17.05;32.05
61039;BME280;46919;45.816;3.104;2023-04-16T12:58:44;98301.75;;;17.04;31.22
61039;BME280;46919;45.816;3.104;2023-04-16T13:01:10;98304.53;;;17.09;31.50
61039;BME280;46919;45.816;3.104;2023-04-16T13:03:36;98292.91;;;16.96;31.11
61039;BME280;46919;45.816;3.104;2023-04-16T13:06:02;98310.91;;;17.19;31.72
61039;BME280;46919;45.816;3.104;2023-04-16T13:08:28;98301.28;;;17.44;30.74
61039;BME280;46919;45.816;3.104;2023-04-16T13:10:53;98296.63;;;17.12;31.27
61039;BME280;46919;45.816;3.104;2023-04-16T13:13:19;98303.97;;;16.84;32.13